SARF/FMA METAR and TAF weather

Enter ICAO airport designator
Station Type Date Time Source
SARF METAR 2021/03/08 03:00 UTC NOAA

SARF 080300Z 11004KT CAVOK 22/18 Q1009


Station Type Date Time Source
SARF Decoded METAR 2021/03/08 03:00 UTC NOAA

Formosa Aerodrome, Argentina (SARF) 26-12S 058-14W 60M
Mar 07, 2021 - 10:00 PM EST / 2021.03.08 0300 UTC
Wind: from the ESE (110 degrees) at 5 MPH (4 KT):0
Visibility: greater than 7 mile(s):0
Temperature: 71 F (22 C)
Dew Point: 64 F (18 C)
Relative Humidity: 78%
Pressure (altimeter): 29.80 in. Hg (1009 hPa)
ob: SARF 080300Z 11004KT CAVOK 22/18 Q1009
cycle: 3

Station Type Date Time Source
SARF TAF 2021/03/08 00:00 UTC NOAA

TAF SARF 072300Z 0800/0824 VRB03KT CAVOK TX35/0819Z TN16/0810Z
BECMG 0813/0814 SCT030
BECMG 0820/0821 CAVOK

Example: see airport list